sensor_id;sensor_type;location;lat;lon;timestamp;P1;durP1;ratioP1;P2;durP2;ratioP2
10244;SDS011;5167;52.164;10.530;2023-02-01T00:01:53;13.23;;;3.97;;
10244;SDS011;5167;52.164;10.530;2023-02-01T00:04:18;18.27;;;4.90;;
10244;SDS011;5167;52.164;10.530;2023-02-01T00:06:44;16.23;;;3.37;;
10244;SDS011;5167;52.164;10.530;2023-02-01T00:09:09;14.17;;;4.03;;
10244;SDS011;5167;52.164;10.530;2023-02-01T00:11:35;17.20;;;5.00;;
10244;SDS011;5167;52.164;10.530;2023-02-01T00:14:00;15.33;;;5.07;;
10244;SDS011;5167;52.164;10.530;2023-02-01T00:16:27;23.97;;;5.10;;
10244;SDS011;5167;52.164;10.530;2023-02-01T00:18:59;12.73;;;3.87;;
10244;SDS011;5167;52.164;10.530;2023-02-01T00:21:50;14.60;;;3.80;;
10244;SDS011;5167;52.164;10.530;2023-02-01T00:24:16;12.90;;;3.87;;
10244;SDS011;5167;52.164;10.530;2023-02-01T00:26:42;12.10;;;3.77;;
10244;SDS011;5167;52.164;10.530;2023-02-01T00:29:13;17.43;;;3.93;;
10244;SDS011;5167;52.164;10.530;2023-02-01T00:31:41;19.30;;;5.17;;
10244;SDS011;5167;52.164;10.530;2023-02-01T00:34:09;16.60;;;3.50;;
10244;SDS011;5167;52.164;10.530;2023-02-01T00:36:38;12.50;;;3.17;;
10244;SDS011;5167;52.164;10.530;2023-02-01T00:39:04;18.63;;;4.53;;
10244;SDS011;5167;52.164;10.530;2023-02-01T00:41:30;11.60;;;3.17;;
10244;SDS011;5167;52.164;10.530;2023-02-01T00:43:55;16.97;;;3.07;;
10244;SDS011;5167;52.164;10.530;2023-02-01T00:46:21;13.50;;;4.20;;
10244;SDS011;5167;52.164;10.530;2023-02-01T00:48:46;15.07;;;3.33;;
10244;SDS011;5167;52.164;10.530;2023-02-01T00:51:13;13.73;;;3.20;;
10244;SDS011;5167;52.164;10.530;2023-02-01T00:53:40;13.27;;;3.87;;
10244;SDS011;5167;52.164;10.530;2023-02-01T00:56:06;13.03;;;4.27;;
10244;SDS011;5167;52.164;10.530;2023-02-01T00:58:33;13.47;;;3.93;;
10244;SDS011;5167;52.164;10.530;2023-02-01T01:01:08;19.97;;;4.37;;
10244;SDS011;5167;52.164;10.530;2023-02-01T01:03:40;18.03;;;3.33;;
10244;SDS011;5167;52.164;10.530;2023-02-01T01:06:07;20.13;;;3.33;;
10244;SDS011;5167;52.164;10.530;2023-02-01T01:08:35;14.67;;;3.50;;
10244;SDS011;5167;52.164;10.530;2023-02-01T01:11:08;12.47;;;4.07;;
10244;SDS011;5167;52.164;10.530;2023-02-01T01:13:42;20.63;;;4.23;;
10244;SDS011;5167;52.164;10.530;2023-02-01T01:16:09;15.23;;;4.97;;
10244;SDS011;5167;52.164;10.530;2023-02-01T01:18:35;11.33;;;3.70;;
10244;SDS011;5167;52.164;10.530;2023-02-01T01:21:03;9.80;;;3.67;;
10244;SDS011;5167;52.164;10.530;2023-02-01T01:23:30;18.27;;;3.77;;
10244;SDS011;5167;52.164;10.530;2023-02-01T01:25:56;22.23;;;3.67;;
10244;SDS011;5167;52.164;10.530;2023-02-01T01:28:21;28.80;;;5.27;;
10244;SDS011;5167;52.164;10.530;2023-02-01T01:30:47;15.17;;;4.23;;
10244;SDS011;5167;52.164;10.530;2023-02-01T01:33:13;16.77;;;4.47;;
10244;SDS011;5167;52.164;10.530;2023-02-01T01:35:38;14.13;;;4.03;;
10244;SDS011;5167;52.164;10.530;2023-02-01T01:38:04;20.73;;;5.10;;
10244;SDS011;5167;52.164;10.530;2023-02-01T01:40:30;23.23;;;5.43;;
10244;SDS011;5167;52.164;10.530;2023-02-01T01:42:56;17.07;;;4.37;;
10244;SDS011;5167;52.164;10.530;2023-02-01T01:45:24;17.23;;;3.90;;
10244;SDS011;5167;52.164;10.530;2023-02-01T01:47:53;15.67;;;5.17;;
10244;SDS011;5167;52.164;10.530;2023-02-01T01:50:23;19.47;;;4.93;;
10244;SDS011;5167;52.164;10.530;2023-02-01T01:52:55;17.70;;;4.23;;
10244;SDS011;5167;52.164;10.530;2023-02-01T01:55:25;14.23;;;4.20;;
10244;SDS011;5167;52.164;10.530;2023-02-01T01:57:59;17.97;;;3.67;;
10244;SDS011;5167;52.164;10.530;2023-02-01T02:00:27;10.80;;;4.17;;
10244;SDS011;5167;52.164;10.530;2023-02-01T02:02:54;16.47;;;6.30;;
10244;SDS011;5167;52.164;10.530;2023-02-01T02:05:25;18.13;;;5.80;;
10244;SDS011;5167;52.164;10.530;2023-02-01T02:07:52;16.53;;;5.23;;
10244;SDS011;5167;52.164;10.530;2023-02-01T02:10:21;46.63;;;15.10;;
10244;SDS011;5167;52.164;10.530;2023-02-01T02:13:07;32.80;;;9.90;;
10244;SDS011;5167;52.164;10.530;2023-02-01T02:15:36;31.67;;;8.83;;
10244;SDS011;5167;52.164;10.530;2023-02-01T02:18:23;25.47;;;7.60;;
10244;SDS011;5167;52.164;10.530;2023-02-01T02:23:29;14.00;;;5.47;;
10244;SDS011;5167;52.164;10.530;2023-02-01T02:29:39;24.07;;;5.60;;
10244;SDS011;5167;52.164;10.530;2023-02-01T02:35:16;17.70;;;4.87;;
10244;SDS011;5167;52.164;10.530;2023-02-01T02:38:02;15.93;;;3.67;;
10244;SDS011;5167;52.164;10.530;2023-02-01T02:40:46;18.43;;;4.23;;
10244;SDS011;5167;52.164;10.530;2023-02-01T02:43:23;19.37;;;3.63;;
10244;SDS011;5167;52.164;10.530;2023-02-01T02:46:22;16.13;;;3.47;;
10244;SDS011;5167;52.164;10.530;2023-02-01T02:54:30;15.60;;;3.57;;
10244;SDS011;5167;52.164;10.530;2023-02-01T02:57:12;19.37;;;3.50;;
10244;SDS011;5167;52.164;10.530;2023-02-01T03:00:04;16.80;;;3.53;;
10244;SDS011;5167;52.164;10.530;2023-02-01T03:02:51;7.60;;;3.40;;
10244;SDS011;5167;52.164;10.530;2023-02-01T03:05:39;16.67;;;3.30;;
10244;SDS011;5167;52.164;10.530;2023-02-01T03:08:20;10.00;;;3.47;;
10244;SDS011;5167;52.164;10.530;2023-02-01T03:13:30;15.07;;;3.87;;
10244;SDS011;5167;52.164;10.530;2023-02-01T03:16:13;18.93;;;4.07;;
10244;SDS011;5167;52.164;10.530;2023-02-01T03:18:55;18.50;;;3.93;;
10244;SDS011;5167;52.164;10.530;2023-02-01T03:21:31;16.70;;;3.70;;
10244;SDS011;5167;52.164;10.530;2023-02-01T03:24:10;10.90;;;4.03;;
10244;SDS011;5167;52.164;10.530;2023-02-01T03:26:41;12.30;;;4.07;;
10244;SDS011;5167;52.164;10.530;2023-02-01T03:29:13;16.93;;;3.67;;
10244;SDS011;5167;52.164;10.530;2023-02-01T03:31:42;16.03;;;3.90;;
10244;SDS011;5167;52.164;10.530;2023-02-01T03:34:08;17.53;;;3.70;;
10244;SDS011;5167;52.164;10.530;2023-02-01T03:36:37;17.67;;;4.03;;
10244;SDS011;5167;52.164;10.530;2023-02-01T03:39:11;11.77;;;3.33;;
10244;SDS011;5167;52.164;10.530;2023-02-01T03:41:50;16.27;;;4.13;;
10244;SDS011;5167;52.164;10.530;2023-02-01T03:44:23;16.80;;;3.60;;
10244;SDS011;5167;52.164;10.530;2023-02-01T03:46:52;12.20;;;3.67;;
10244;SDS011;5167;52.164;10.530;2023-02-01T03:49:33;12.73;;;4.10;;
10244;SDS011;5167;52.164;10.530;2023-02-01T03:51:59;15.60;;;3.80;;
10244;SDS011;5167;52.164;10.530;2023-02-01T03:54:26;16.47;;;3.60;;
10244;SDS011;5167;52.164;10.530;2023-02-01T03:56:53;14.10;;;3.23;;
10244;SDS011;5167;52.164;10.530;2023-02-01T03:59:22;14.97;;;3.40;;
10244;SDS011;5167;52.164;10.530;2023-02-01T04:01:49;16.53;;;5.23;;
10244;SDS011;5167;52.164;10.530;2023-02-01T04:04:15;13.13;;;3.20;;
10244;SDS011;5167;52.164;10.530;2023-02-01T04:06:48;21.67;;;4.40;;
10244;SDS011;5167;52.164;10.530;2023-02-01T04:09:14;17.83;;;3.47;;
10244;SDS011;5167;52.164;10.530;2023-02-01T04:11:39;20.57;;;4.57;;
10244;SDS011;5167;52.164;10.530;2023-02-01T04:14:05;8.73;;;2.63;;
10244;SDS011;5167;52.164;10.530;2023-02-01T04:16:31;13.53;;;3.47;;
10244;SDS011;5167;52.164;10.530;2023-02-01T04:18:57;13.90;;;3.33;;
10244;SDS011;5167;52.164;10.530;2023-02-01T04:21:23;19.07;;;4.87;;
10244;SDS011;5167;52.164;10.530;2023-02-01T04:23:49;16.47;;;4.60;;
10244;SDS011;5167;52.164;10.530;2023-02-01T04:26:15;19.50;;;4.57;;
10244;SDS011;5167;52.164;10.530;2023-02-01T04:28:41;14.37;;;3.83;;
10244;SDS011;5167;52.164;10.530;2023-02-01T04:31:07;13.97;;;4.00;;
10244;SDS011;5167;52.164;10.530;2023-02-01T04:33:32;18.67;;;3.83;;
10244;SDS011;5167;52.164;10.530;2023-02-01T04:35:58;16.60;;;3.33;;
10244;SDS011;5167;52.164;10.530;2023-02-01T04:38:23;16.07;;;3.70;;
10244;SDS011;5167;52.164;10.530;2023-02-01T04:40:49;12.27;;;3.47;;
10244;SDS011;5167;52.164;10.530;2023-02-01T04:43:15;16.20;;;3.77;;
10244;SDS011;5167;52.164;10.530;2023-02-01T04:45:46;13.80;;;3.93;;
10244;SDS011;5167;52.164;10.530;2023-02-01T04:48:12;15.63;;;4.43;;
10244;SDS011;5167;52.164;10.530;2023-02-01T04:50:38;23.47;;;5.07;;
10244;SDS011;5167;52.164;10.530;2023-02-01T04:53:03;18.83;;;4.60;;
10244;SDS011;5167;52.164;10.530;2023-02-01T04:55:29;13.77;;;3.37;;
10244;SDS011;5167;52.164;10.530;2023-02-01T04:57:55;15.53;;;4.83;;
10244;SDS011;5167;52.164;10.530;2023-02-01T05:00:21;18.93;;;4.03;;
10244;SDS011;5167;52.164;10.530;2023-02-01T05:02:47;20.97;;;4.60;;
10244;SDS011;5167;52.164;10.530;2023-02-01T05:05:12;19.30;;;3.93;;
10244;SDS011;5167;52.164;10.530;2023-02-01T05:07:38;12.33;;;4.20;;
10244;SDS011;5167;52.164;10.530;2023-02-01T05:10:03;15.67;;;4.10;;
10244;SDS011;5167;52.164;10.530;2023-02-01T05:12:29;14.50;;;4.23;;
10244;SDS011;5167;52.164;10.530;2023-02-01T05:15:13;19.73;;;4.43;;
10244;SDS011;5167;52.164;10.530;2023-02-01T05:17:38;18.17;;;4.03;;
10244;SDS011;5167;52.164;10.530;2023-02-01T05:20:05;20.53;;;3.83;;
10244;SDS011;5167;52.164;10.530;2023-02-01T05:22:32;29.97;;;4.33;;
10244;SDS011;5167;52.164;10.530;2023-02-01T05:24:57;22.50;;;5.20;;
10244;SDS011;5167;52.164;10.530;2023-02-01T05:27:22;16.03;;;4.27;;
10244;SDS011;5167;52.164;10.530;2023-02-01T05:29:48;13.33;;;3.70;;
10244;SDS011;5167;52.164;10.530;2023-02-01T05:32:13;16.63;;;4.47;;
10244;SDS011;5167;52.164;10.530;2023-02-01T05:34:39;9.90;;;3.70;;
10244;SDS011;5167;52.164;10.530;2023-02-01T05:37:05;16.07;;;4.13;;
10244;SDS011;5167;52.164;10.530;2023-02-01T05:39:30;16.30;;;5.10;;
10244;SDS011;5167;52.164;10.530;2023-02-01T05:41:56;12.87;;;4.17;;
10244;SDS011;5167;52.164;10.530;2023-02-01T05:44:21;18.10;;;4.63;;
10244;SDS011;5167;52.164;10.530;2023-02-01T05:46:46;11.20;;;4.13;;
10244;SDS011;5167;52.164;10.530;2023-02-01T05:49:12;9.97;;;4.03;;
10244;SDS011;5167;52.164;10.530;2023-02-01T05:51:37;13.87;;;4.13;;
10244;SDS011;5167;52.164;10.530;2023-02-01T05:54:03;19.53;;;4.50;;
10244;SDS011;5167;52.164;10.530;2023-02-01T05:56:28;14.80;;;4.37;;
10244;SDS011;5167;52.164;10.530;2023-02-01T05:58:54;13.70;;;4.10;;
10244;SDS011;5167;52.164;10.530;2023-02-01T06:01:19;18.47;;;5.30;;
10244;SDS011;5167;52.164;10.530;2023-02-01T06:03:45;14.00;;;4.03;;
10244;SDS011;5167;52.164;10.530;2023-02-01T06:06:10;18.17;;;4.20;;
10244;SDS011;5167;52.164;10.530;2023-02-01T06:08:36;12.70;;;4.93;;
10244;SDS011;5167;52.164;10.530;2023-02-01T06:11:05;13.87;;;5.13;;
10244;SDS011;5167;52.164;10.530;2023-02-01T06:13:31;15.10;;;4.97;;
10244;SDS011;5167;52.164;10.530;2023-02-01T06:15:57;13.73;;;3.83;;
10244;SDS011;5167;52.164;10.530;2023-02-01T06:18:23;14.80;;;5.07;;
10244;SDS011;5167;52.164;10.530;2023-02-01T06:20:56;12.37;;;3.27;;
10244;SDS011;5167;52.164;10.530;2023-02-01T06:23:22;12.87;;;4.53;;
10244;SDS011;5167;52.164;10.530;2023-02-01T06:25:49;8.93;;;3.77;;
10244;SDS011;5167;52.164;10.530;2023-02-01T06:28:16;16.50;;;4.47;;
10244;SDS011;5167;52.164;10.530;2023-02-01T06:30:41;13.43;;;3.47;;
10244;SDS011;5167;52.164;10.530;2023-02-01T06:33:10;15.30;;;3.10;;
10244;SDS011;5167;52.164;10.530;2023-02-01T06:35:42;16.10;;;4.47;;
10244;SDS011;5167;52.164;10.530;2023-02-01T06:38:12;12.40;;;3.73;;
10244;SDS011;5167;52.164;10.530;2023-02-01T06:40:38;14.93;;;3.40;;
10244;SDS011;5167;52.164;10.530;2023-02-01T06:43:06;12.17;;;4.03;;
10244;SDS011;5167;52.164;10.530;2023-02-01T06:45:31;11.37;;;3.33;;
10244;SDS011;5167;52.164;10.530;2023-02-01T06:47:58;11.93;;;4.10;;
10244;SDS011;5167;52.164;10.530;2023-02-01T06:50:24;13.83;;;4.27;;
10244;SDS011;5167;52.164;10.530;2023-02-01T06:52:50;14.80;;;5.03;;
10244;SDS011;5167;52.164;10.530;2023-02-01T06:55:15;12.67;;;3.27;;
10244;SDS011;5167;52.164;10.530;2023-02-01T06:57:41;8.93;;;3.17;;
10244;SDS011;5167;52.164;10.530;2023-02-01T07:00:06;8.93;;;3.27;;
10244;SDS011;5167;52.164;10.530;2023-02-01T07:02:32;13.97;;;3.00;;
10244;SDS011;5167;52.164;10.530;2023-02-01T07:04:58;13.77;;;3.77;;
10244;SDS011;5167;52.164;10.530;2023-02-01T07:07:23;8.87;;;3.03;;
10244;SDS011;5167;52.164;10.530;2023-02-01T07:09:49;11.77;;;3.30;;
10244;SDS011;5167;52.164;10.530;2023-02-01T07:12:14;9.33;;;3.33;;
10244;SDS011;5167;52.164;10.530;2023-02-01T07:14:40;10.17;;;3.10;;
10244;SDS011;5167;52.164;10.530;2023-02-01T07:17:06;10.30;;;3.37;;
10244;SDS011;5167;52.164;10.530;2023-02-01T07:19:32;10.00;;;2.97;;
10244;SDS011;5167;52.164;10.530;2023-02-01T07:21:57;12.53;;;3.33;;
10244;SDS011;5167;52.164;10.530;2023-02-01T07:24:23;8.17;;;3.90;;
10244;SDS011;5167;52.164;10.530;2023-02-01T07:26:48;10.83;;;4.40;;
10244;SDS011;5167;52.164;10.530;2023-02-01T07:29:15;8.60;;;3.63;;
10244;SDS011;5167;52.164;10.530;2023-02-01T07:31:42;8.87;;;3.83;;
10244;SDS011;5167;52.164;10.530;2023-02-01T07:34:07;9.57;;;2.90;;
10244;SDS011;5167;52.164;10.530;2023-02-01T07:36:33;7.80;;;2.97;;
10244;SDS011;5167;52.164;10.530;2023-02-01T07:38:59;12.60;;;3.17;;
10244;SDS011;5167;52.164;10.530;2023-02-01T07:41:25;17.40;;;3.40;;
10244;SDS011;5167;52.164;10.530;2023-02-01T07:43:53;12.70;;;3.77;;
10244;SDS011;5167;52.164;10.530;2023-02-01T07:46:19;13.43;;;4.07;;
10244;SDS011;5167;52.164;10.530;2023-02-01T07:48:45;15.10;;;4.53;;
10244;SDS011;5167;52.164;10.530;2023-02-01T07:51:15;11.20;;;4.30;;
10244;SDS011;5167;52.164;10.530;2023-02-01T07:53:42;12.57;;;4.77;;
10244;SDS011;5167;52.164;10.530;2023-02-01T07:56:15;15.07;;;5.07;;
10244;SDS011;5167;52.164;10.530;2023-02-01T07:58:42;14.43;;;5.47;;
10244;SDS011;5167;52.164;10.530;2023-02-01T08:01:14;9.33;;;4.77;;
10244;SDS011;5167;52.164;10.530;2023-02-01T08:03:44;11.33;;;3.67;;
10244;SDS011;5167;52.164;10.530;2023-02-01T08:06:10;8.73;;;3.87;;
10244;SDS011;5167;52.164;10.530;2023-02-01T08:08:36;10.77;;;3.60;;
10244;SDS011;5167;52.164;10.530;2023-02-01T08:11:02;9.37;;;3.63;;
10244;SDS011;5167;52.164;10.530;2023-02-01T08:13:30;17.63;;;4.70;;
10244;SDS011;5167;52.164;10.530;2023-02-01T08:15:59;8.60;;;3.60;;
10244;SDS011;5167;52.164;10.530;2023-02-01T08:18:25;12.67;;;3.60;;
10244;SDS011;5167;52.164;10.530;2023-02-01T08:20:50;10.63;;;4.13;;
10244;SDS011;5167;52.164;10.530;2023-02-01T08:23:16;13.87;;;4.50;;
10244;SDS011;5167;52.164;10.530;2023-02-01T08:25:42;11.03;;;3.70;;
10244;SDS011;5167;52.164;10.530;2023-02-01T08:28:08;14.93;;;4.63;;
10244;SDS011;5167;52.164;10.530;2023-02-01T08:30:35;12.33;;;4.47;;
10244;SDS011;5167;52.164;10.530;2023-02-01T08:33:02;18.50;;;4.20;;
10244;SDS011;5167;52.164;10.530;2023-02-01T08:35:27;15.07;;;3.20;;
10244;SDS011;5167;52.164;10.530;2023-02-01T08:37:53;16.60;;;3.90;;
10244;SDS011;5167;52.164;10.530;2023-02-01T08:40:18;17.83;;;3.77;;
10244;SDS011;5167;52.164;10.530;2023-02-01T08:42:46;16.23;;;4.23;;
10244;SDS011;5167;52.164;10.530;2023-02-01T08:45:19;21.87;;;5.17;;
10244;SDS011;5167;52.164;10.530;2023-02-01T08:47:54;14.27;;;4.60;;
10244;SDS011;5167;52.164;10.530;2023-02-01T08:50:20;14.63;;;4.10;;
10244;SDS011;5167;52.164;10.530;2023-02-01T08:52:46;12.23;;;3.90;;
10244;SDS011;5167;52.164;10.530;2023-02-01T08:55:12;15.03;;;3.90;;
10244;SDS011;5167;52.164;10.530;2023-02-01T08:57:38;16.90;;;4.23;;
10244;SDS011;5167;52.164;10.530;2023-02-01T09:00:05;11.47;;;3.53;;
10244;SDS011;5167;52.164;10.530;2023-02-01T09:02:33;9.93;;;3.90;;
10244;SDS011;5167;52.164;10.530;2023-02-01T09:04:58;12.50;;;3.40;;
10244;SDS011;5167;52.164;10.530;2023-02-01T09:07:24;13.27;;;3.03;;
10244;SDS011;5167;52.164;10.530;2023-02-01T09:09:49;15.57;;;3.60;;
10244;SDS011;5167;52.164;10.530;2023-02-01T09:12:15;12.30;;;3.00;;
10244;SDS011;5167;52.164;10.530;2023-02-01T09:14:41;10.03;;;3.03;;
10244;SDS011;5167;52.164;10.530;2023-02-01T09:17:06;15.17;;;4.57;;
10244;SDS011;5167;52.164;10.530;2023-02-01T09:19:32;9.87;;;4.17;;
10244;SDS011;5167;52.164;10.530;2023-02-01T09:21:57;14.83;;;4.17;;
10244;SDS011;5167;52.164;10.530;2023-02-01T09:24:23;12.50;;;3.60;;
10244;SDS011;5167;52.164;10.530;2023-02-01T09:26:48;17.43;;;4.23;;
10244;SDS011;5167;52.164;10.530;2023-02-01T09:29:15;14.93;;;4.40;;
10244;SDS011;5167;52.164;10.530;2023-02-01T09:31:41;18.43;;;4.80;;
10244;SDS011;5167;52.164;10.530;2023-02-01T09:34:06;17.47;;;4.27;;
10244;SDS011;5167;52.164;10.530;2023-02-01T09:36:32;12.20;;;3.60;;
10244;SDS011;5167;52.164;10.530;2023-02-01T09:38:58;9.10;;;3.40;;
10244;SDS011;5167;52.164;10.530;2023-02-01T09:41:32;15.20;;;3.80;;
10244;SDS011;5167;52.164;10.530;2023-02-01T09:44:09;16.43;;;3.50;;
10244;SDS011;5167;52.164;10.530;2023-02-01T09:47:00;11.47;;;3.10;;
10244;SDS011;5167;52.164;10.530;2023-02-01T09:49:32;20.27;;;3.23;;
10244;SDS011;5167;52.164;10.530;2023-02-01T09:52:01;4.97;;;2.73;;
10244;SDS011;5167;52.164;10.530;2023-02-01T09:57:37;8.27;;;2.87;;
10244;SDS011;5167;52.164;10.530;2023-02-01T10:00:16;14.47;;;2.53;;
10244;SDS011;5167;52.164;10.530;2023-02-01T10:02:48;8.20;;;2.80;;
10244;SDS011;5167;52.164;10.530;2023-02-01T10:05:16;10.43;;;3.27;;
10244;SDS011;5167;52.164;10.530;2023-02-01T10:07:56;11.80;;;4.17;;
10244;SDS011;5167;52.164;10.530;2023-02-01T10:15:35;11.60;;;3.30;;
10244;SDS011;5167;52.164;10.530;2023-02-01T10:21:04;12.57;;;3.53;;
10244;SDS011;5167;52.164;10.530;2023-02-01T10:26:45;14.93;;;3.40;;
10244;SDS011;5167;52.164;10.530;2023-02-01T10:29:20;18.93;;;3.93;;
10244;SDS011;5167;52.164;10.530;2023-02-01T10:31:49;15.43;;;3.07;;
10244;SDS011;5167;52.164;10.530;2023-02-01T10:36:55;5.27;;;2.90;;
10244;SDS011;5167;52.164;10.530;2023-02-01T10:39:45;13.93;;;3.47;;
10244;SDS011;5167;52.164;10.530;2023-02-01T10:42:12;16.30;;;3.40;;
10244;SDS011;5167;52.164;10.530;2023-02-01T10:44:40;9.97;;;2.90;;
10244;SDS011;5167;52.164;10.530;2023-02-01T10:47:09;10.60;;;3.17;;
10244;SDS011;5167;52.164;10.530;2023-02-01T10:49:39;14.63;;;3.60;;
10244;SDS011;5167;52.164;10.530;2023-02-01T10:52:24;11.80;;;3.43;;
10244;SDS011;5167;52.164;10.530;2023-02-01T10:55:00;8.57;;;2.60;;
10244;SDS011;5167;52.164;10.530;2023-02-01T10:58:04;6.20;;;3.70;;
10244;SDS011;5167;52.164;10.530;2023-02-01T11:00:37;11.80;;;3.23;;
10244;SDS011;5167;52.164;10.530;2023-02-01T11:03:19;11.33;;;3.13;;
10244;SDS011;5167;52.164;10.530;2023-02-01T11:05:47;12.80;;;3.30;;
10244;SDS011;5167;52.164;10.530;2023-02-01T11:08:14;9.87;;;3.33;;
10244;SDS011;5167;52.164;10.530;2023-02-01T11:10:43;12.17;;;2.43;;
10244;SDS011;5167;52.164;10.530;2023-02-01T11:13:16;9.70;;;2.73;;
10244;SDS011;5167;52.164;10.530;2023-02-01T11:15:44;6.93;;;2.73;;
10244;SDS011;5167;52.164;10.530;2023-02-01T11:18:15;9.00;;;2.67;;
10244;SDS011;5167;52.164;10.530;2023-02-01T11:20:43;10.77;;;3.33;;
10244;SDS011;5167;52.164;10.530;2023-02-01T11:23:15;16.63;;;2.50;;
10244;SDS011;5167;52.164;10.530;2023-02-01T11:25:53;15.57;;;2.90;;
10244;SDS011;5167;52.164;10.530;2023-02-01T11:28:21;7.97;;;3.03;;
10244;SDS011;5167;52.164;10.530;2023-02-01T11:30:49;11.70;;;3.47;;
10244;SDS011;5167;52.164;10.530;2023-02-01T11:33:19;9.07;;;2.47;;
10244;SDS011;5167;52.164;10.530;2023-02-01T11:35:45;9.13;;;2.83;;
10244;SDS011;5167;52.164;10.530;2023-02-01T11:38:18;10.23;;;2.67;;
10244;SDS011;5167;52.164;10.530;2023-02-01T11:40:55;13.50;;;3.50;;
10244;SDS011;5167;52.164;10.530;2023-02-01T11:43:35;14.83;;;2.43;;
10244;SDS011;5167;52.164;10.530;2023-02-01T11:46:02;12.30;;;2.63;;
10244;SDS011;5167;52.164;10.530;2023-02-01T11:48:30;9.73;;;2.63;;
10244;SDS011;5167;52.164;10.530;2023-02-01T11:56:30;11.13;;;2.60;;
10244;SDS011;5167;52.164;10.530;2023-02-01T12:02:33;9.33;;;2.17;;
10244;SDS011;5167;52.164;10.530;2023-02-01T12:07:55;6.33;;;2.10;;
10244;SDS011;5167;52.164;10.530;2023-02-01T12:13:49;5.83;;;1.90;;
10244;SDS011;5167;52.164;10.530;2023-02-01T12:16:50;5.43;;;1.87;;
10244;SDS011;5167;52.164;10.530;2023-02-01T12:33:39;8.90;;;2.37;;
10244;SDS011;5167;52.164;10.530;2023-02-01T12:36:32;8.37;;;2.60;;
10244;SDS011;5167;52.164;10.530;2023-02-01T12:39:17;5.57;;;2.20;;
10244;SDS011;5167;52.164;10.530;2023-02-01T12:44:32;10.77;;;2.33;;
10244;SDS011;5167;52.164;10.530;2023-02-01T12:46:59;6.53;;;2.50;;
10244;SDS011;5167;52.164;10.530;2023-02-01T12:49:36;7.80;;;2.67;;
10244;SDS011;5167;52.164;10.530;2023-02-01T12:52:21;5.33;;;2.33;;
10244;SDS011;5167;52.164;10.530;2023-02-01T12:55:01;7.57;;;2.50;;
10244;SDS011;5167;52.164;10.530;2023-02-01T12:57:37;10.13;;;3.63;;
10244;SDS011;5167;52.164;10.530;2023-02-01T13:00:13;9.33;;;2.63;;
10244;SDS011;5167;52.164;10.530;2023-02-01T13:03:02;11.57;;;3.10;;
10244;SDS011;5167;52.164;10.530;2023-02-01T13:05:33;12.00;;;2.30;;
10244;SDS011;5167;52.164;10.530;2023-02-01T13:08:09;13.10;;;4.77;;
10244;SDS011;5167;52.164;10.530;2023-02-01T13:10:54;9.40;;;3.53;;
10244;SDS011;5167;52.164;10.530;2023-02-01T13:13:32;13.00;;;2.30;;
10244;SDS011;5167;52.164;10.530;2023-02-01T13:16:15;7.00;;;2.43;;
10244;SDS011;5167;52.164;10.530;2023-02-01T13:18:46;11.40;;;2.27;;
10244;SDS011;5167;52.164;10.530;2023-02-01T13:21:16;23.20;;;10.93;;
10244;SDS011;5167;52.164;10.530;2023-02-01T13:23:47;7.03;;;2.20;;
10244;SDS011;5167;52.164;10.530;2023-02-01T13:26:13;6.13;;;2.77;;
10244;SDS011;5167;52.164;10.530;2023-02-01T13:37:48;4.50;;;2.50;;
10244;SDS011;5167;52.164;10.530;2023-02-01T13:43:22;8.93;;;3.80;;
10244;SDS011;5167;52.164;10.530;2023-02-01T13:45:52;12.13;;;3.57;;
10244;SDS011;5167;52.164;10.530;2023-02-01T13:48:24;15.63;;;9.60;;
10244;SDS011;5167;52.164;10.530;2023-02-01T13:51:09;8.63;;;3.30;;
10244;SDS011;5167;52.164;10.530;2023-02-01T13:53:35;6.60;;;3.40;;
10244;SDS011;5167;52.164;10.530;2023-02-01T13:56:03;8.53;;;3.07;;
10244;SDS011;5167;52.164;10.530;2023-02-01T13:58:37;8.83;;;2.63;;
10244;SDS011;5167;52.164;10.530;2023-02-01T14:03:45;7.73;;;2.83;;
10244;SDS011;5167;52.164;10.530;2023-02-01T14:06:17;7.23;;;2.60;;
10244;SDS011;5167;52.164;10.530;2023-02-01T14:11:52;4.90;;;2.70;;
10244;SDS011;5167;52.164;10.530;2023-02-01T14:16:44;4.73;;;2.10;;
10244;SDS011;5167;52.164;10.530;2023-02-01T14:19:35;5.00;;;1.90;;
10244;SDS011;5167;52.164;10.530;2023-02-01T14:24:49;0.90;;;0.90;;
10244;SDS011;5167;52.164;10.530;2023-02-01T14:27:20;0.90;;;0.90;;
10244;SDS011;5167;52.164;10.530;2023-02-01T14:29:51;1.67;;;1.10;;
10244;SDS011;5167;52.164;10.530;2023-02-01T14:32:38;4.00;;;2.07;;
10244;SDS011;5167;52.164;10.530;2023-02-01T14:35:07;2.00;;;1.30;;
10244;SDS011;5167;52.164;10.530;2023-02-01T14:37:42;3.67;;;2.27;;
10244;SDS011;5167;52.164;10.530;2023-02-01T14:42:44;4.13;;;2.00;;
10244;SDS011;5167;52.164;10.530;2023-02-01T14:50:39;2.97;;;2.20;;
10244;SDS011;5167;52.164;10.530;2023-02-01T15:03:53;5.47;;;3.70;;
10244;SDS011;5167;52.164;10.530;2023-02-01T15:06:40;3.93;;;2.57;;
10244;SDS011;5167;52.164;10.530;2023-02-01T15:11:53;3.40;;;1.70;;
10244;SDS011;5167;52.164;10.530;2023-02-01T15:19:55;0.90;;;0.90;;
10244;SDS011;5167;52.164;10.530;2023-02-01T15:22:28;1.47;;;1.10;;
10244;SDS011;5167;52.164;10.530;2023-02-01T15:24:56;1.77;;;0.97;;
10244;SDS011;5167;52.164;10.530;2023-02-01T15:27:23;3.63;;;1.43;;
10244;SDS011;5167;52.164;10.530;2023-02-01T15:29:49;1.93;;;1.17;;
10244;SDS011;5167;52.164;10.530;2023-02-01T15:32:28;3.77;;;1.67;;
10244;SDS011;5167;52.164;10.530;2023-02-01T15:34:57;3.07;;;1.20;;
10244;SDS011;5167;52.164;10.530;2023-02-01T15:37:23;2.63;;;1.20;;
10244;SDS011;5167;52.164;10.530;2023-02-01T15:42:50;4.13;;;1.83;;
10244;SDS011;5167;52.164;10.530;2023-02-01T15:45:20;3.17;;;1.37;;
10244;SDS011;5167;52.164;10.530;2023-02-01T15:47:50;4.23;;;1.20;;
10244;SDS011;5167;52.164;10.530;2023-02-01T15:50:18;2.30;;;1.17;;
10244;SDS011;5167;52.164;10.530;2023-02-01T15:52:46;1.40;;;1.30;;
10244;SDS011;5167;52.164;10.530;2023-02-01T15:57:44;3.53;;;1.40;;
10244;SDS011;5167;52.164;10.530;2023-02-01T16:00:27;2.27;;;1.33;;
10244;SDS011;5167;52.164;10.530;2023-02-01T16:05:59;4.00;;;1.33;;
10244;SDS011;5167;52.164;10.530;2023-02-01T16:08:26;5.33;;;1.27;;
10244;SDS011;5167;52.164;10.530;2023-02-01T16:10:59;7.30;;;1.50;;
10244;SDS011;5167;52.164;10.530;2023-02-01T16:13:38;6.20;;;1.40;;
10244;SDS011;5167;52.164;10.530;2023-02-01T16:16:04;2.30;;;1.40;;
10244;SDS011;5167;52.164;10.530;2023-02-01T16:18:32;4.53;;;1.70;;
10244;SDS011;5167;52.164;10.530;2023-02-01T16:20:58;8.50;;;2.70;;
10244;SDS011;5167;52.164;10.530;2023-02-01T16:23:23;4.67;;;3.40;;
10244;SDS011;5167;52.164;10.530;2023-02-01T16:25:49;5.17;;;3.33;;
10244;SDS011;5167;52.164;10.530;2023-02-01T16:28:14;6.97;;;3.10;;
10244;SDS011;5167;52.164;10.530;2023-02-01T16:30:40;7.37;;;2.67;;
10244;SDS011;5167;52.164;10.530;2023-02-01T16:33:05;5.90;;;2.83;;
10244;SDS011;5167;52.164;10.530;2023-02-01T16:35:36;8.73;;;2.93;;
10244;SDS011;5167;52.164;10.530;2023-02-01T16:38:03;6.33;;;3.47;;
10244;SDS011;5167;52.164;10.530;2023-02-01T16:40:37;6.97;;;3.10;;
10244;SDS011;5167;52.164;10.530;2023-02-01T16:43:05;9.43;;;3.60;;
10244;SDS011;5167;52.164;10.530;2023-02-01T16:45:52;15.17;;;4.10;;
10244;SDS011;5167;52.164;10.530;2023-02-01T16:48:20;9.63;;;3.33;;
10244;SDS011;5167;52.164;10.530;2023-02-01T16:50:47;8.10;;;3.20;;
10244;SDS011;5167;52.164;10.530;2023-02-01T16:53:16;7.40;;;3.07;;
10244;SDS011;5167;52.164;10.530;2023-02-01T16:55:43;6.30;;;3.30;;
10244;SDS011;5167;52.164;10.530;2023-02-01T16:58:08;8.47;;;3.27;;
10244;SDS011;5167;52.164;10.530;2023-02-01T17:00:34;11.57;;;3.20;;